sensor_id;sensor_type;location;lat;lon;timestamp;temperature;humidity
7476;DHT22;3779;49.216;8.650;2022-10-16T00:01:46;22.90;67.40
7476;DHT22;3779;49.216;8.650;2022-10-16T00:04:32;22.90;67.40
7476;DHT22;3779;49.216;8.650;2022-10-16T00:07:18;22.90;67.40
7476;DHT22;3779;49.216;8.650;2022-10-16T00:10:04;22.90;67.40
7476;DHT22;3779;49.216;8.650;2022-10-16T00:12:50;22.90;67.50
7476;DHT22;3779;49.216;8.650;2022-10-16T00:15:36;22.90;67.30
7476;DHT22;3779;49.216;8.650;2022-10-16T00:18:23;22.90;67.50
7476;DHT22;3779;49.216;8.650;2022-10-16T00:21:12;22.90;68.30
7476;DHT22;3779;49.216;8.650;2022-10-16T00:24:17;22.90;67.60
7476;DHT22;3779;49.216;8.650;2022-10-16T00:27:03;22.90;67.60
7476;DHT22;3779;49.216;8.650;2022-10-16T00:29:50;22.90;67.60
7476;DHT22;3779;49.216;8.650;2022-10-16T00:32:36;22.90;67.80
7476;DHT22;3779;49.216;8.650;2022-10-16T00:35:22;22.90;67.70
7476;DHT22;3779;49.216;8.650;2022-10-16T00:38:08;22.90;67.60
7476;DHT22;3779;49.216;8.650;2022-10-16T00:40:54;22.90;67.60
7476;DHT22;3779;49.216;8.650;2022-10-16T00:43:44;22.90;67.60
7476;DHT22;3779;49.216;8.650;2022-10-16T00:46:41;22.90;67.70
7476;DHT22;3779;49.216;8.650;2022-10-16T00:49:27;22.90;67.80
7476;DHT22;3779;49.216;8.650;2022-10-16T00:52:14;22.90;67.70
7476;DHT22;3779;49.216;8.650;2022-10-16T00:55:02;22.90;67.60
7476;DHT22;3779;49.216;8.650;2022-10-16T00:57:50;22.90;68.40
7476;DHT22;3779;49.216;8.650;2022-10-16T01:00:36;22.90;67.70
7476;DHT22;3779;49.216;8.650;2022-10-16T01:03:27;22.90;67.60
7476;DHT22;3779;49.216;8.650;2022-10-16T01:06:23;22.90;67.70
7476;DHT22;3779;49.216;8.650;2022-10-16T01:12:41;22.90;67.80
7476;DHT22;3779;49.216;8.650;2022-10-16T01:15:36;22.90;67.80
7476;DHT22;3779;49.216;8.650;2022-10-16T01:21:35;22.80;67.70
7476;DHT22;3779;49.216;8.650;2022-10-16T01:24:38;22.90;67.80
7476;DHT22;3779;49.216;8.650;2022-10-16T01:27:27;22.80;67.80
7476;DHT22;3779;49.216;8.650;2022-10-16T01:30:24;22.80;67.80
7476;DHT22;3779;49.216;8.650;2022-10-16T01:33:36;22.90;68.00
7476;DHT22;3779;49.216;8.650;2022-10-16T01:36:28;22.80;67.70
7476;DHT22;3779;49.216;8.650;2022-10-16T01:39:18;22.90;67.80
7476;DHT22;3779;49.216;8.650;2022-10-16T01:42:20;22.90;67.80
7476;DHT22;3779;49.216;8.650;2022-10-16T01:45:08;22.90;67.80
7476;DHT22;3779;49.216;8.650;2022-10-16T01:47:59;22.60;67.50
7476;DHT22;3779;49.216;8.650;2022-10-16T01:50:59;22.90;67.80
7476;DHT22;3779;49.216;8.650;2022-10-16T01:53:50;22.90;67.70
7476;DHT22;3779;49.216;8.650;2022-10-16T01:56:38;22.90;67.60
7476;DHT22;3779;49.216;8.650;2022-10-16T01:59:26;22.90;67.60
7476;DHT22;3779;49.216;8.650;2022-10-16T02:02:14;22.90;67.60
7476;DHT22;3779;49.216;8.650;2022-10-16T02:05:31;22.90;67.60
7476;DHT22;3779;49.216;8.650;2022-10-16T02:08:19;22.90;67.80
7476;DHT22;3779;49.216;8.650;2022-10-16T02:11:06;22.90;67.70
7476;DHT22;3779;49.216;8.650;2022-10-16T02:13:58;22.90;67.70
7476;DHT22;3779;49.216;8.650;2022-10-16T02:16:45;22.90;67.70
7476;DHT22;3779;49.216;8.650;2022-10-16T02:19:32;22.90;67.70
7476;DHT22;3779;49.216;8.650;2022-10-16T02:22:34;22.90;67.60
7476;DHT22;3779;49.216;8.650;2022-10-16T02:25:25;22.90;67.60
7476;DHT22;3779;49.216;8.650;2022-10-16T02:28:24;22.90;67.60
7476;DHT22;3779;49.216;8.650;2022-10-16T02:31:12;22.90;67.60
7476;DHT22;3779;49.216;8.650;2022-10-16T02:34:03;22.90;67.50
7476;DHT22;3779;49.216;8.650;2022-10-16T02:36:51;22.90;67.50
7476;DHT22;3779;49.216;8.650;2022-10-16T02:39:38;22.90;67.40
7476;DHT22;3779;49.216;8.650;2022-10-16T02:42:36;22.90;67.40
7476;DHT22;3779;49.216;8.650;2022-10-16T02:45:23;22.90;67.30
7476;DHT22;3779;49.216;8.650;2022-10-16T02:48:09;22.90;67.20
7476;DHT22;3779;49.216;8.650;2022-10-16T02:50:55;22.90;67.20
7476;DHT22;3779;49.216;8.650;2022-10-16T02:53:42;22.90;67.20
7476;DHT22;3779;49.216;8.650;2022-10-16T02:56:28;22.90;66.90
7476;DHT22;3779;49.216;8.650;2022-10-16T02:59:15;22.90;67.00
7476;DHT22;3779;49.216;8.650;2022-10-16T03:02:01;22.90;66.90
7476;DHT22;3779;49.216;8.650;2022-10-16T03:04:47;22.80;66.70
7476;DHT22;3779;49.216;8.650;2022-10-16T03:07:33;22.80;66.70
7476;DHT22;3779;49.216;8.650;2022-10-16T03:10:19;22.80;66.80
7476;DHT22;3779;49.216;8.650;2022-10-16T03:13:05;22.80;67.00
7476;DHT22;3779;49.216;8.650;2022-10-16T03:15:51;22.80;66.90
7476;DHT22;3779;49.216;8.650;2022-10-16T03:18:37;22.80;67.00
7476;DHT22;3779;49.216;8.650;2022-10-16T03:21:23;22.80;67.10
7476;DHT22;3779;49.216;8.650;2022-10-16T03:24:09;22.80;67.20
7476;DHT22;3779;49.216;8.650;2022-10-16T03:26:55;22.80;67.20
7476;DHT22;3779;49.216;8.650;2022-10-16T03:29:41;22.80;67.20
7476;DHT22;3779;49.216;8.650;2022-10-16T03:32:26;22.90;67.20
7476;DHT22;3779;49.216;8.650;2022-10-16T03:35:14;22.80;67.20
7476;DHT22;3779;49.216;8.650;2022-10-16T03:37:59;22.90;67.20
7476;DHT22;3779;49.216;8.650;2022-10-16T03:40:46;22.80;67.10
7476;DHT22;3779;49.216;8.650;2022-10-16T03:43:31;22.90;67.20
7476;DHT22;3779;49.216;8.650;2022-10-16T03:46:17;22.80;67.00
7476;DHT22;3779;49.216;8.650;2022-10-16T03:49:03;22.80;67.00
7476;DHT22;3779;49.216;8.650;2022-10-16T03:51:49;22.80;67.00
7476;DHT22;3779;49.216;8.650;2022-10-16T03:54:35;22.80;67.10
7476;DHT22;3779;49.216;8.650;2022-10-16T03:57:21;22.80;67.00
7476;DHT22;3779;49.216;8.650;2022-10-16T04:00:07;22.80;67.10
7476;DHT22;3779;49.216;8.650;2022-10-16T04:02:57;22.80;67.00
7476;DHT22;3779;49.216;8.650;2022-10-16T04:05:43;22.80;66.90
7476;DHT22;3779;49.216;8.650;2022-10-16T04:08:29;22.80;66.80
7476;DHT22;3779;49.216;8.650;2022-10-16T04:11:15;22.90;67.10
7476;DHT22;3779;49.216;8.650;2022-10-16T04:14:01;22.80;66.90
7476;DHT22;3779;49.216;8.650;2022-10-16T04:16:47;22.80;66.90
7476;DHT22;3779;49.216;8.650;2022-10-16T04:19:33;22.80;66.90
7476;DHT22;3779;49.216;8.650;2022-10-16T04:22:19;22.80;66.90
7476;DHT22;3779;49.216;8.650;2022-10-16T04:25:05;22.80;67.00
7476;DHT22;3779;49.216;8.650;2022-10-16T04:27:53;22.80;67.00
7476;DHT22;3779;49.216;8.650;2022-10-16T04:30:39;22.80;67.00
7476;DHT22;3779;49.216;8.650;2022-10-16T04:33:25;22.80;67.00
7476;DHT22;3779;49.216;8.650;2022-10-16T04:36:11;22.80;67.00
7476;DHT22;3779;49.216;8.650;2022-10-16T04:38:57;22.80;67.00
7476;DHT22;3779;49.216;8.650;2022-10-16T04:41:43;22.80;67.00
7476;DHT22;3779;49.216;8.650;2022-10-16T04:44:29;22.80;67.00
7476;DHT22;3779;49.216;8.650;2022-10-16T04:47:15;22.80;67.00
7476;DHT22;3779;49.216;8.650;2022-10-16T04:50:01;23.00;67.30
7476;DHT22;3779;49.216;8.650;2022-10-16T04:52:48;22.90;67.20
7476;DHT22;3779;49.216;8.650;2022-10-16T04:55:34;22.90;67.20
7476;DHT22;3779;49.216;8.650;2022-10-16T04:58:20;22.90;67.20
7476;DHT22;3779;49.216;8.650;2022-10-16T05:01:06;22.90;67.10
7476;DHT22;3779;49.216;8.650;2022-10-16T05:03:52;22.90;67.20
7476;DHT22;3779;49.216;8.650;2022-10-16T05:06:38;22.80;67.00
7476;DHT22;3779;49.216;8.650;2022-10-16T05:09:24;22.80;67.10
7476;DHT22;3779;49.216;8.650;2022-10-16T05:12:10;22.80;67.00
7476;DHT22;3779;49.216;8.650;2022-10-16T05:14:57;22.90;67.10
7476;DHT22;3779;49.216;8.650;2022-10-16T05:17:44;22.90;67.20
7476;DHT22;3779;49.216;8.650;2022-10-16T05:20:30;22.90;67.00
7476;DHT22;3779;49.216;8.650;2022-10-16T05:23:16;22.80;67.00
7476;DHT22;3779;49.216;8.650;2022-10-16T05:26:01;22.90;67.00
7476;DHT22;3779;49.216;8.650;2022-10-16T05:28:49;22.80;67.00
7476;DHT22;3779;49.216;8.650;2022-10-16T05:31:35;22.80;67.10
7476;DHT22;3779;49.216;8.650;2022-10-16T05:34:21;22.80;67.00
7476;DHT22;3779;49.216;8.650;2022-10-16T05:37:07;22.80;67.00
7476;DHT22;3779;49.216;8.650;2022-10-16T05:39:53;22.80;67.00
7476;DHT22;3779;49.216;8.650;2022-10-16T05:42:40;22.80;66.90
7476;DHT22;3779;49.216;8.650;2022-10-16T05:45:26;22.80;67.00
7476;DHT22;3779;49.216;8.650;2022-10-16T05:48:11;22.80;66.80
7476;DHT22;3779;49.216;8.650;2022-10-16T05:51:02;22.80;66.90
7476;DHT22;3779;49.216;8.650;2022-10-16T05:53:49;22.80;67.00
7476;DHT22;3779;49.216;8.650;2022-10-16T05:56:35;22.80;66.70
7476;DHT22;3779;49.216;8.650;2022-10-16T05:59:21;22.80;66.70
7476;DHT22;3779;49.216;8.650;2022-10-16T06:02:12;22.80;66.70
7476;DHT22;3779;49.216;8.650;2022-10-16T06:04:58;22.80;66.80
7476;DHT22;3779;49.216;8.650;2022-10-16T06:07:44;22.80;66.70
7476;DHT22;3779;49.216;8.650;2022-10-16T06:10:30;22.80;66.70
7476;DHT22;3779;49.216;8.650;2022-10-16T06:13:16;22.80;66.70
7476;DHT22;3779;49.216;8.650;2022-10-16T06:16:03;22.80;66.60
7476;DHT22;3779;49.216;8.650;2022-10-16T06:18:51;22.90;66.70
7476;DHT22;3779;49.216;8.650;2022-10-16T06:21:37;22.90;66.60
7476;DHT22;3779;49.216;8.650;2022-10-16T06:24:24;22.90;66.50
7476;DHT22;3779;49.216;8.650;2022-10-16T06:27:09;22.80;66.70
7476;DHT22;3779;49.216;8.650;2022-10-16T06:29:55;22.80;66.70
7476;DHT22;3779;49.216;8.650;2022-10-16T06:32:41;22.80;66.70
7476;DHT22;3779;49.216;8.650;2022-10-16T06:35:27;22.80;66.70
7476;DHT22;3779;49.216;8.650;2022-10-16T06:38:14;22.80;66.80
7476;DHT22;3779;49.216;8.650;2022-10-16T06:41:00;22.80;67.40
7476;DHT22;3779;49.216;8.650;2022-10-16T06:43:47;22.80;66.80
7476;DHT22;3779;49.216;8.650;2022-10-16T06:46:33;22.80;66.80
7476;DHT22;3779;49.216;8.650;2022-10-16T06:49:19;22.80;66.90
7476;DHT22;3779;49.216;8.650;2022-10-16T06:52:08;22.80;66.90
7476;DHT22;3779;49.216;8.650;2022-10-16T06:54:54;22.80;66.80
7476;DHT22;3779;49.216;8.650;2022-10-16T06:57:40;22.80;66.90
7476;DHT22;3779;49.216;8.650;2022-10-16T07:00:26;22.80;66.90
7476;DHT22;3779;49.216;8.650;2022-10-16T07:03:13;22.80;66.90
7476;DHT22;3779;49.216;8.650;2022-10-16T07:06:03;22.80;67.00
7476;DHT22;3779;49.216;8.650;2022-10-16T07:08:49;22.80;67.00
7476;DHT22;3779;49.216;8.650;2022-10-16T07:11:37;22.80;67.20
7476;DHT22;3779;49.216;8.650;2022-10-16T07:14:24;22.80;67.40
7476;DHT22;3779;49.216;8.650;2022-10-16T07:17:10;22.80;67.40
7476;DHT22;3779;49.216;8.650;2022-10-16T07:19:56;22.80;68.00
7476;DHT22;3779;49.216;8.650;2022-10-16T07:22:42;22.90;67.20
7476;DHT22;3779;49.216;8.650;2022-10-16T07:25:28;22.90;67.10
7476;DHT22;3779;49.216;8.650;2022-10-16T07:28:14;22.90;67.30
7476;DHT22;3779;49.216;8.650;2022-10-16T07:31:05;22.90;67.50
7476;DHT22;3779;49.216;8.650;2022-10-16T07:33:51;22.90;67.70
7476;DHT22;3779;49.216;8.650;2022-10-16T07:36:37;22.90;67.80
7476;DHT22;3779;49.216;8.650;2022-10-16T07:39:23;22.90;67.90
7476;DHT22;3779;49.216;8.650;2022-10-16T07:42:09;22.90;68.10
7476;DHT22;3779;49.216;8.650;2022-10-16T07:44:55;22.90;68.10
7476;DHT22;3779;49.216;8.650;2022-10-16T07:47:41;23.00;68.10
7476;DHT22;3779;49.216;8.650;2022-10-16T07:50:27;22.90;68.00
7476;DHT22;3779;49.216;8.650;2022-10-16T07:53:13;23.00;68.10
7476;DHT22;3779;49.216;8.650;2022-10-16T07:56:01;22.90;68.30
7476;DHT22;3779;49.216;8.650;2022-10-16T07:58:47;22.90;68.30
7476;DHT22;3779;49.216;8.650;2022-10-16T08:01:35;23.00;68.50
7476;DHT22;3779;49.216;8.650;2022-10-16T08:04:21;23.00;68.40
7476;DHT22;3779;49.216;8.650;2022-10-16T08:07:07;23.00;68.40
7476;DHT22;3779;49.216;8.650;2022-10-16T08:09:54;23.00;68.30
7476;DHT22;3779;49.216;8.650;2022-10-16T08:12:35;23.00;68.30
7476;DHT22;3779;49.216;8.650;2022-10-16T08:15:01;23.00;68.30
7476;DHT22;3779;49.216;8.650;2022-10-16T08:17:27;23.10;68.50
7476;DHT22;3779;49.216;8.650;2022-10-16T08:20:13;23.00;68.30
7476;DHT22;3779;49.216;8.650;2022-10-16T08:23:00;23.00;68.40
7476;DHT22;3779;49.216;8.650;2022-10-16T08:25:46;23.00;68.60
7476;DHT22;3779;49.216;8.650;2022-10-16T08:28:32;23.00;68.40
7476;DHT22;3779;49.216;8.650;2022-10-16T08:31:18;23.10;68.20
7476;DHT22;3779;49.216;8.650;2022-10-16T08:34:04;23.10;68.10
7476;DHT22;3779;49.216;8.650;2022-10-16T08:36:53;23.10;67.90
7476;DHT22;3779;49.216;8.650;2022-10-16T08:39:40;23.00;68.20
7476;DHT22;3779;49.216;8.650;2022-10-16T08:48:53;23.00;68.10
7476;DHT22;3779;49.216;8.650;2022-10-16T08:51:40;23.10;68.70
7476;DHT22;3779;49.216;8.650;2022-10-16T08:54:34;23.10;68.60
7476;DHT22;3779;49.216;8.650;2022-10-16T08:57:26;23.10;68.60
7476;DHT22;3779;49.216;8.650;2022-10-16T09:00:17;23.10;68.50
7476;DHT22;3779;49.216;8.650;2022-10-16T09:06:38;23.10;68.60
7476;DHT22;3779;49.216;8.650;2022-10-16T09:12:24;23.20;68.60
7476;DHT22;3779;49.216;8.650;2022-10-16T09:18:16;23.20;68.90
7476;DHT22;3779;49.216;8.650;2022-10-16T09:21:14;23.10;68.40
7476;DHT22;3779;49.216;8.650;2022-10-16T09:24:16;23.10;68.50
7476;DHT22;3779;49.216;8.650;2022-10-16T09:27:02;23.10;67.60
7476;DHT22;3779;49.216;8.650;2022-10-16T09:29:48;23.10;68.10
7476;DHT22;3779;49.216;8.650;2022-10-16T09:32:34;23.10;67.90
7476;DHT22;3779;49.216;8.650;2022-10-16T09:38:31;23.10;67.90
7476;DHT22;3779;49.216;8.650;2022-10-16T09:41:21;23.10;67.10
7476;DHT22;3779;49.216;8.650;2022-10-16T09:47:16;23.10;67.00
7476;DHT22;3779;49.216;8.650;2022-10-16T09:50:21;23.10;66.90
7476;DHT22;3779;49.216;8.650;2022-10-16T09:53:12;23.10;66.50
7476;DHT22;3779;49.216;8.650;2022-10-16T09:55:58;23.10;66.80
7476;DHT22;3779;49.216;8.650;2022-10-16T09:58:53;23.10;66.60
7476;DHT22;3779;49.216;8.650;2022-10-16T10:04:38;23.00;66.50
7476;DHT22;3779;49.216;8.650;2022-10-16T10:07:28;23.10;66.60
7476;DHT22;3779;49.216;8.650;2022-10-16T10:10:28;23.10;66.30
7476;DHT22;3779;49.216;8.650;2022-10-16T10:13:20;23.10;66.50
7476;DHT22;3779;49.216;8.650;2022-10-16T10:16:06;23.20;66.60
7476;DHT22;3779;49.216;8.650;2022-10-16T10:19:01;23.20;66.40
7476;DHT22;3779;49.216;8.650;2022-10-16T10:21:47;23.20;66.10
7476;DHT22;3779;49.216;8.650;2022-10-16T10:24:34;23.20;66.20
7476;DHT22;3779;49.216;8.650;2022-10-16T10:27:20;23.10;66.50
7476;DHT22;3779;49.216;8.650;2022-10-16T10:39:16;23.00;66.30
7476;DHT22;3779;49.216;8.650;2022-10-16T10:42:31;23.20;66.10
7476;DHT22;3779;49.216;8.650;2022-10-16T10:45:46;23.30;66.40
7476;DHT22;3779;49.216;8.650;2022-10-16T10:54:28;23.20;66.00
7476;DHT22;3779;49.216;8.650;2022-10-16T10:57:48;23.10;66.00
7476;DHT22;3779;49.216;8.650;2022-10-16T11:00:55;23.00;66.10
7476;DHT22;3779;49.216;8.650;2022-10-16T11:03:52;23.00;66.20
7476;DHT22;3779;49.216;8.650;2022-10-16T11:06:50;23.00;66.40
7476;DHT22;3779;49.216;8.650;2022-10-16T11:09:43;23.10;67.00
7476;DHT22;3779;49.216;8.650;2022-10-16T11:12:38;23.30;67.30
7476;DHT22;3779;49.216;8.650;2022-10-16T11:15:31;23.30;67.10
7476;DHT22;3779;49.216;8.650;2022-10-16T11:18:43;23.30;67.20
7476;DHT22;3779;49.216;8.650;2022-10-16T11:21:36;23.30;66.50
7476;DHT22;3779;49.216;8.650;2022-10-16T11:24:40;23.30;66.80
7476;DHT22;3779;49.216;8.650;2022-10-16T11:27:40;23.30;66.90
7476;DHT22;3779;49.216;8.650;2022-10-16T11:30:33;23.30;66.80
7476;DHT22;3779;49.216;8.650;2022-10-16T11:36:51;23.30;66.60
7476;DHT22;3779;49.216;8.650;2022-10-16T11:39:38;23.30;66.50
7476;DHT22;3779;49.216;8.650;2022-10-16T11:42:34;23.30;66.50
7476;DHT22;3779;49.216;8.650;2022-10-16T11:48:30;23.30;66.60
7476;DHT22;3779;49.216;8.650;2022-10-16T11:51:29;23.30;66.80
7476;DHT22;3779;49.216;8.650;2022-10-16T11:54:28;23.30;66.90
7476;DHT22;3779;49.216;8.650;2022-10-16T11:57:29;23.40;67.40
7476;DHT22;3779;49.216;8.650;2022-10-16T12:08:47;23.40;67.40
7476;DHT22;3779;49.216;8.650;2022-10-16T12:11:37;23.40;67.60
7476;DHT22;3779;49.216;8.650;2022-10-16T12:14:34;23.40;67.80
7476;DHT22;3779;49.216;8.650;2022-10-16T12:17:27;23.30;67.60
7476;DHT22;3779;49.216;8.650;2022-10-16T12:20:32;23.40;67.80
7476;DHT22;3779;49.216;8.650;2022-10-16T12:23:21;23.30;68.30
7476;DHT22;3779;49.216;8.650;2022-10-16T12:26:10;23.40;67.80
7476;DHT22;3779;49.216;8.650;2022-10-16T12:32:42;23.30;67.40
7476;DHT22;3779;49.216;8.650;2022-10-16T12:35:31;23.00;66.30
7476;DHT22;3779;49.216;8.650;2022-10-16T12:38:28;23.30;67.10
7476;DHT22;3779;49.216;8.650;2022-10-16T12:41:29;23.30;67.00
7476;DHT22;3779;49.216;8.650;2022-10-16T12:44:23;23.40;66.70
7476;DHT22;3779;49.216;8.650;2022-10-16T12:50:28;23.30;67.00
7476;DHT22;3779;49.216;8.650;2022-10-16T12:53:20;23.40;67.10
7476;DHT22;3779;49.216;8.650;2022-10-16T13:05:44;23.20;66.20
7476;DHT22;3779;49.216;8.650;2022-10-16T13:09:14;23.20;66.20
7476;DHT22;3779;49.216;8.650;2022-10-16T13:12:08;23.20;66.20
7476;DHT22;3779;49.216;8.650;2022-10-16T13:23:54;23.20;65.80
7476;DHT22;3779;49.216;8.650;2022-10-16T13:27:00;23.20;66.00
7476;DHT22;3779;49.216;8.650;2022-10-16T13:30:02;23.20;65.90
7476;DHT22;3779;49.216;8.650;2022-10-16T13:33:02;23.20;65.90
7476;DHT22;3779;49.216;8.650;2022-10-16T13:35:54;23.30;66.00
7476;DHT22;3779;49.216;8.650;2022-10-16T13:38:40;23.30;65.90
7476;DHT22;3779;49.216;8.650;2022-10-16T13:41:27;23.30;65.90
7476;DHT22;3779;49.216;8.650;2022-10-16T13:44:19;23.30;65.80
7476;DHT22;3779;49.216;8.650;2022-10-16T13:47:10;23.30;65.90
7476;DHT22;3779;49.216;8.650;2022-10-16T13:52:49;23.30;65.80
7476;DHT22;3779;49.216;8.650;2022-10-16T13:55:36;23.30;65.60
7476;DHT22;3779;49.216;8.650;2022-10-16T13:58:21;23.30;65.60
7476;DHT22;3779;49.216;8.650;2022-10-16T14:01:20;23.30;65.60
7476;DHT22;3779;49.216;8.650;2022-10-16T14:04:11;23.40;65.60
7476;DHT22;3779;49.216;8.650;2022-10-16T14:06:58;23.30;65.60
7476;DHT22;3779;49.216;8.650;2022-10-16T14:09:48;23.30;65.60
7476;DHT22;3779;49.216;8.650;2022-10-16T14:12:35;23.30;65.60
7476;DHT22;3779;49.216;8.650;2022-10-16T14:15:21;23.30;65.60
7476;DHT22;3779;49.216;8.650;2022-10-16T14:18:21;23.30;65.70
7476;DHT22;3779;49.216;8.650;2022-10-16T14:21:13;23.40;65.50
7476;DHT22;3779;49.216;8.650;2022-10-16T14:24:11;23.30;65.70
7476;DHT22;3779;49.216;8.650;2022-10-16T14:26:57;23.30;65.80
7476;DHT22;3779;49.216;8.650;2022-10-16T14:29:43;23.30;65.80
7476;DHT22;3779;49.216;8.650;2022-10-16T14:32:29;23.30;65.80
7476;DHT22;3779;49.216;8.650;2022-10-16T14:35:27;23.30;65.70
7476;DHT22;3779;49.216;8.650;2022-10-16T14:38:20;23.30;65.80
7476;DHT22;3779;49.216;8.650;2022-10-16T14:41:06;23.20;65.70
7476;DHT22;3779;49.216;8.650;2022-10-16T14:43:58;23.20;65.80
7476;DHT22;3779;49.216;8.650;2022-10-16T14:46:46;23.20;65.80
7476;DHT22;3779;49.216;8.650;2022-10-16T14:49:32;23.20;65.90
7476;DHT22;3779;49.216;8.650;2022-10-16T14:52:18;23.20;65.90
7476;DHT22;3779;49.216;8.650;2022-10-16T14:55:05;23.20;65.90
7476;DHT22;3779;49.216;8.650;2022-10-16T14:57:51;23.20;65.90
7476;DHT22;3779;49.216;8.650;2022-10-16T15:00:36;23.30;65.90
7476;DHT22;3779;49.216;8.650;2022-10-16T15:03:22;23.20;65.90
7476;DHT22;3779;49.216;8.650;2022-10-16T15:06:11;23.20;66.00
7476;DHT22;3779;49.216;8.650;2022-10-16T15:08:57;23.20;66.00
7476;DHT22;3779;49.216;8.650;2022-10-16T15:11:43;23.20;65.80
7476;DHT22;3779;49.216;8.650;2022-10-16T15:14:29;23.20;65.90
7476;DHT22;3779;49.216;8.650;2022-10-16T15:17:15;23.20;66.00
7476;DHT22;3779;49.216;8.650;2022-10-16T15:20:01;23.20;66.20
7476;DHT22;3779;49.216;8.650;2022-10-16T15:22:48;23.20;66.20
7476;DHT22;3779;49.216;8.650;2022-10-16T15:25:39;23.30;66.00
7476;DHT22;3779;49.216;8.650;2022-10-16T15:28:27;23.30;66.20
7476;DHT22;3779;49.216;8.650;2022-10-16T15:31:13;23.30;66.00
7476;DHT22;3779;49.216;8.650;2022-10-16T15:33:59;23.30;65.90
7476;DHT22;3779;49.216;8.650;2022-10-16T15:36:49;23.30;66.00
7476;DHT22;3779;49.216;8.650;2022-10-16T15:39:35;23.30;66.00
7476;DHT22;3779;49.216;8.650;2022-10-16T15:42:21;23.40;66.90
7476;DHT22;3779;49.216;8.650;2022-10-16T15:45:09;23.50;67.60
7476;DHT22;3779;49.216;8.650;2022-10-16T15:47:55;23.40;67.10
7476;DHT22;3779;49.216;8.650;2022-10-16T15:50:41;23.30;66.60
7476;DHT22;3779;49.216;8.650;2022-10-16T15:53:28;23.30;66.60
7476;DHT22;3779;49.216;8.650;2022-10-16T15:56:14;23.30;66.50
7476;DHT22;3779;49.216;8.650;2022-10-16T15:59:01;23.30;66.40
7476;DHT22;3779;49.216;8.650;2022-10-16T16:01:47;23.30;66.30
7476;DHT22;3779;49.216;8.650;2022-10-16T16:04:33;23.30;66.30
7476;DHT22;3779;49.216;8.650;2022-10-16T16:07:19;23.30;66.90
7476;DHT22;3779;49.216;8.650;2022-10-16T16:10:07;23.30;66.20
7476;DHT22;3779;49.216;8.650;2022-10-16T16:12:53;23.30;66.30
7476;DHT22;3779;49.216;8.650;2022-10-16T16:15:40;23.40;66.30
7476;DHT22;3779;49.216;8.650;2022-10-16T16:18:26;23.40;66.40
7476;DHT22;3779;49.216;8.650;2022-10-16T16:21:12;23.40;66.30
7476;DHT22;3779;49.216;8.650;2022-10-16T16:23:59;23.40;66.30
7476;DHT22;3779;49.216;8.650;2022-10-16T16:26:45;23.40;66.60
7476;DHT22;3779;49.216;8.650;2022-10-16T16:29:31;23.40;66.70
7476;DHT22;3779;49.216;8.650;2022-10-16T16:32:17;23.40;66.30
7476;DHT22;3779;49.216;8.650;2022-10-16T16:35:03;23.50;66.60
7476;DHT22;3779;49.216;8.650;2022-10-16T16:37:49;23.50;67.00
7476;DHT22;3779;49.216;8.650;2022-10-16T16:40:35;23.50;66.90
7476;DHT22;3779;49.216;8.650;2022-10-16T16:43:25;23.40;67.10
7476;DHT22;3779;49.216;8.650;2022-10-16T16:46:11;23.40;67.10
7476;DHT22;3779;49.216;8.650;2022-10-16T16:48:58;23.40;67.10
7476;DHT22;3779;49.216;8.650;2022-10-16T16:51:44;23.40;67.10
7476;DHT22;3779;49.216;8.650;2022-10-16T16:54:30;23.40;67.00
7476;DHT22;3779;49.216;8.650;2022-10-16T16:57:19;23.40;67.10
7476;DHT22;3779;49.216;8.650;2022-10-16T17:00:07;23.40;67.10
7476;DHT22;3779;49.216;8.650;2022-10-16T17:02:53;23.40;67.80
7476;DHT22;3779;49.216;8.650;2022-10-16T17:05:39;23.40;67.00
7476;DHT22;3779;49.216;8.650;2022-10-16T17:08:25;23.40;67.00
7476;DHT22;3779;49.216;8.650;2022-10-16T17:11:20;23.30;67.10
7476;DHT22;3779;49.216;8.650;2022-10-16T17:14:06;23.30;67.20
7476;DHT22;3779;49.216;8.650;2022-10-16T17:16:53;23.30;67.10
7476;DHT22;3779;49.216;8.650;2022-10-16T17:19:39;23.30;67.00
7476;DHT22;3779;49.216;8.650;2022-10-16T17:22:25;23.30;67.00
7476;DHT22;3779;49.216;8.650;2022-10-16T17:25:11;23.30;66.90
7476;DHT22;3779;49.216;8.650;2022-10-16T17:27:57;23.30;66.80
7476;DHT22;3779;49.216;8.650;2022-10-16T17:30:43;23.30;66.70
7476;DHT22;3779;49.216;8.650;2022-10-16T17:33:29;23.40;66.70
7476;DHT22;3779;49.216;8.650;2022-10-16T17:36:15;23.30;66.50
7476;DHT22;3779;49.216;8.650;2022-10-16T17:39:04;23.30;66.30
7476;DHT22;3779;49.216;8.650;2022-10-16T17:41:50;23.30;66.80
7476;DHT22;3779;49.216;8.650;2022-10-16T17:44:36;23.30;66.70
7476;DHT22;3779;49.216;8.650;2022-10-16T17:47:22;23.30;66.40
7476;DHT22;3779;49.216;8.650;2022-10-16T17:50:08;23.30;66.10
7476;DHT22;3779;49.216;8.650;2022-10-16T17:52:54;23.30;66.10
7476;DHT22;3779;49.216;8.650;2022-10-16T17:55:40;23.30;65.80
7476;DHT22;3779;49.216;8.650;2022-10-16T17:58:27;23.30;65.90
7476;DHT22;3779;49.216;8.650;2022-10-16T18:01:19;23.30;65.60
7476;DHT22;3779;49.216;8.650;2022-10-16T18:04:11;23.30;65.40
7476;DHT22;3779;49.216;8.650;2022-10-16T18:06:58;23.30;65.40
7476;DHT22;3779;49.216;8.650;2022-10-16T18:09:45;23.30;65.50
7476;DHT22;3779;49.216;8.650;2022-10-16T18:12:31;23.30;65.30
7476;DHT22;3779;49.216;8.650;2022-10-16T18:15:17;23.20;65.50
7476;DHT22;3779;49.216;8.650;2022-10-16T18:18:03;23.30;66.20
7476;DHT22;3779;49.216;8.650;2022-10-16T18:21:00;23.20;65.30
7476;DHT22;3779;49.216;8.650;2022-10-16T18:23:47;23.20;65.40
7476;DHT22;3779;49.216;8.650;2022-10-16T18:26:34;23.20;65.30
7476;DHT22;3779;49.216;8.650;2022-10-16T18:29:20;23.20;65.30
7476;DHT22;3779;49.216;8.650;2022-10-16T18:32:05;23.20;65.40
7476;DHT22;3779;49.216;8.650;2022-10-16T18:34:51;23.20;65.40
7476;DHT22;3779;49.216;8.650;2022-10-16T18:37:38;23.30;65.50
7476;DHT22;3779;49.216;8.650;2022-10-16T18:40:24;23.30;65.40
7476;DHT22;3779;49.216;8.650;2022-10-16T18:43:10;23.30;65.40
7476;DHT22;3779;49.216;8.650;2022-10-16T18:46:10;23.30;65.40
7476;DHT22;3779;49.216;8.650;2022-10-16T18:48:56;23.30;65.50
7476;DHT22;3779;49.216;8.650;2022-10-16T18:51:43;23.30;65.50
7476;DHT22;3779;49.216;8.650;2022-10-16T18:54:30;23.30;65.40
7476;DHT22;3779;49.216;8.650;2022-10-16T18:57:16;23.30;65.40
7476;DHT22;3779;49.216;8.650;2022-10-16T19:00:02;23.30;65.30
7476;DHT22;3779;49.216;8.650;2022-10-16T19:02:49;23.30;65.20
7476;DHT22;3779;49.216;8.650;2022-10-16T19:05:35;23.30;65.20
7476;DHT22;3779;49.216;8.650;2022-10-16T19:08:20;23.30;65.20
7476;DHT22;3779;49.216;8.650;2022-10-16T19:11:16;23.30;65.10
7476;DHT22;3779;49.216;8.650;2022-10-16T19:14:02;23.30;65.00
7476;DHT22;3779;49.216;8.650;2022-10-16T19:16:47;23.30;65.50
7476;DHT22;3779;49.216;8.650;2022-10-16T19:19:33;23.30;64.70
7476;DHT22;3779;49.216;8.650;2022-10-16T19:22:20;23.30;64.70
7476;DHT22;3779;49.216;8.650;2022-10-16T19:25:35;23.20;64.40
7476;DHT22;3779;49.216;8.650;2022-10-16T19:28:22;23.20;64.20
7476;DHT22;3779;49.216;8.650;2022-10-16T19:31:10;23.20;64.00
7476;DHT22;3779;49.216;8.650;2022-10-16T19:33:58;23.20;63.80
7476;DHT22;3779;49.216;8.650;2022-10-16T19:36:44;23.20;64.00
7476;DHT22;3779;49.216;8.650;2022-10-16T19:39:30;23.20;63.90
7476;DHT22;3779;49.216;8.650;2022-10-16T19:42:16;23.20;64.00
7476;DHT22;3779;49.216;8.650;2022-10-16T19:45:02;23.10;63.90
7476;DHT22;3779;49.216;8.650;2022-10-16T19:47:48;23.10;63.80
7476;DHT22;3779;49.216;8.650;2022-10-16T19:50:34;23.10;63.40
7476;DHT22;3779;49.216;8.650;2022-10-16T19:53:20;23.10;63.40